Time;durP1;ratioP1;P1;durP2;ratioP2;P2;SDS_P1;SDS_P2;PMS_P1;PMS_P2;Temp;Humidity;BMP_temperature;BMP_pressure;BME280_temperature;BME280_humidity;BME280_pressure;Samples;Min_cycle;Max_cycle;Signal;HPM_P1;HPM_P2
2022/02/05 00:02:42;;;;;;;;;;;;;;;;;;10390504;28;20046;-73
2022/02/05 00:07:55;;;;;;;5.05;2.35;;;;;;;;;;10372018;28;20963;-72
2022/02/05 00:13:16;;;;;;;5.28;2.10;;;;;;;;;;10364542;28;20073;-70
2022/02/05 00:40:01;;;;;;;12.27;1.88;;;;;;;;;;10371437;28;20044;-71
2022/02/05 00:45:07;;;;;;;3.33;1.83;;;;;;;;;;10376530;28;20088;-72
2022/02/05 00:50:16;;;;;;;3.97;1.92;;;;;;;;;;10373347;28;20144;-72
2022/02/05 00:55:24;;;;;;;3.47;1.67;;;;;;;;;;10366689;28;20042;-72
2022/02/05 01:00:30;;;;;;;3.72;1.33;;;;;;;;;;10371566;28;20294;-73
2022/02/05 01:05:35;;;;;;;0.93;0.80;;;;;;;;;;10374638;28;20528;-72
2022/02/05 01:10:39;;;;;;;1.30;0.30;;;;;;;;;;10373576;28;20096;-71
2022/02/05 01:15:50;;;;;;;0.60;0.40;;;;;;;;;;10374107;28;20038;-73
2022/02/05 01:21:11;;;;;;;0.20;0.20;;;;;;;;;;10369780;28;20109;-73
2022/02/05 01:26:23;;;;;;;0.77;0.43;;;;;;;;;;10374128;28;20088;-73
2022/02/05 01:31:30;;;;;;;0.60;0.30;;;;;;;;;;10371279;28;20471;-74
2022/02/05 01:52:43;;;;;;;0.30;0.27;;;;;;;;;;10367844;28;20033;-72
2022/02/05 01:57:55;;;;;;;0.10;0.10;;;;;;;;;;10369015;28;20048;-71
2022/02/05 02:14:07;;;;;;;1.93;0.33;;;;;;;;;;10361172;28;20058;-72
2022/02/05 02:19:20;;;;;;;0.20;0.20;;;;;;;;;;10366298;28;20469;-72
2022/02/05 02:24:35;;;;;;;0.97;0.60;;;;;;;;;;10372533;28;20064;-71
2022/02/05 02:29:50;;;;;;;0.50;0.23;;;;;;;;;;10364223;28;20116;-72
2022/02/05 02:35:00;;;;;;;0.30;0.20;;;;;;;;;;10366280;28;20029;-71
2022/02/05 02:40:10;;;;;;;0.03;0.03;;;;;;;;;;10368910;28;20043;-71
2022/02/05 02:45:14;;;;;;;0.20;0.20;;;;;;;;;;10366238;28;20364;-71
2022/02/05 02:50:29;;;;;;;0.33;0.33;;;;;;;;;;10372356;28;20460;-71
2022/02/05 03:00:57;;;;;;;3.27;0.20;;;;;;;;;;10363990;28;20498;-69
2022/02/05 03:06:02;;;;;;;0.33;0.33;;;;;;;;;;10382458;28;20499;-71
2022/02/05 03:11:07;;;;;;;0.20;0.20;;;;;;;;;;10361428;28;20041;-71
2022/02/05 03:16:20;;;;;;;2.27;0.40;;;;;;;;;;10365852;28;20052;-71
2022/02/05 03:21:24;;;;;;;0.63;0.07;;;;;;;;;;10364561;28;20053;-72
2022/02/05 03:26:32;;;;;;;0.28;0.20;;;;;;;;;;10366723;28;20362;-72
2022/02/05 03:31:36;;;;;;;1.00;0.30;;;;;;;;;;10366009;28;20038;-72
2022/02/05 03:36:41;;;;;;;0.75;0.30;;;;;;;;;;10360244;28;20030;-73
2022/02/05 03:41:45;;;;;;;0.10;0.10;;;;;;;;;;10361098;28;20223;-72
2022/02/05 03:46:50;;;;;;;0.40;0.40;;;;;;;;;;10355870;28;20160;-72
2022/02/05 03:51:54;;;;;;;0.93;0.30;;;;;;;;;;10364131;28;20046;-71
2022/02/05 03:56:58;;;;;;;0.17;0.17;;;;;;;;;;10366761;28;20034;-71
2022/02/05 04:02:01;;;;;;;2.23;0.40;;;;;;;;;;10365635;28;20474;-71
2022/02/05 04:07:12;;;;;;;0.27;0.23;;;;;;;;;;10366700;28;20482;-70
2022/02/05 04:17:37;;;;;;;0.23;0.23;;;;;;;;;;10405841;22;20068;-75
2022/02/05 04:22:43;;;;;;;1.80;0.40;;;;;;;;;;10396199;28;20466;-76
2022/02/05 04:27:47;;;;;;;8.93;0.43;;;;;;;;;;10382507;28;20038;-75
2022/02/05 04:32:50;;;;;;;0.10;0.10;;;;;;;;;;10397104;28;20069;-76
2022/02/05 04:38:00;;;;;;;6.67;0.30;;;;;;;;;;10383106;28;20224;-76
2022/02/05 04:43:18;;;;;;;0.10;0.10;;;;;;;;;;10396651;28;20044;-75
2022/02/05 04:54:05;;;;;;;1.83;0.27;;;;;;;;;;10567305;27;1333712;-76
2022/02/05 05:04:37;;;;;;;0.30;0.20;;;;;;;;;;10523560;28;20052;-76
2022/02/05 05:09:54;;;;;;;0.67;0.43;;;;;;;;;;10536773;28;20081;-76
2022/02/05 05:15:25;;;;;;;0.70;0.40;;;;;;;;;;10549290;28;20419;-75
2022/02/05 05:20:29;;;;;;;0.57;0.40;;;;;;;;;;10531685;28;20028;-75
2022/02/05 05:25:33;;;;;;;0.50;0.30;;;;;;;;;;10550488;28;20391;-74
2022/02/05 05:30:38;;;;;;;0.73;0.40;;;;;;;;;;10551952;28;20166;-75
2022/02/05 05:35:42;;;;;;;1.92;0.75;;;;;;;;;;10547533;28;20548;-75
2022/02/05 05:40:46;;;;;;;1.17;0.80;;;;;;;;;;10551417;28;20099;-75
2022/02/05 05:51:14;;;;;;;4.47;2.03;;;;;;;;;;10550415;28;20114;-76
2022/02/05 05:56:20;;;;;;;2.35;1.30;;;;;;;;;;10527000;28;20040;-75
2022/02/05 06:01:23;;;;;;;1.67;1.07;;;;;;;;;;10548908;28;20097;-77
2022/02/05 06:06:27;;;;;;;2.17;1.10;;;;;;;;;;10503953;28;20420;-75
2022/02/05 06:11:33;;;;;;;0.85;0.50;;;;;;;;;;10522826;28;20040;-75
2022/02/05 06:16:37;;;;;;;1.67;1.43;;;;;;;;;;10493260;28;20032;-76
2022/02/05 06:21:39;;;;;;;0.40;0.33;;;;;;;;;;10500289;28;20066;-74
2022/02/05 06:26:45;;;;;;;0.90;0.70;;;;;;;;;;10505696;28;20036;-75
2022/02/05 06:31:48;;;;;;;1.67;0.77;;;;;;;;;;10501505;28;20222;-75
2022/02/05 06:36:51;;;;;;;1.87;0.73;;;;;;;;;;10500757;28;20029;-75
2022/02/05 06:41:56;;;;;;;2.97;1.20;;;;;;;;;;10503228;28;20055;-74
2022/02/05 06:46:59;;;;;;;0.67;0.53;;;;;;;;;;10502259;28;20075;-75
2022/02/05 06:52:03;;;;;;;1.67;0.97;;;;;;;;;;10515848;28;20043;-74
2022/02/05 06:57:08;;;;;;;0.98;0.68;;;;;;;;;;10498543;28;20044;-76
2022/02/05 07:02:11;;;;;;;0.63;0.50;;;;;;;;;;10515135;28;20032;-75
2022/02/05 07:07:14;;;;;;;0.73;0.55;;;;;;;;;;10517482;28;20394;-75
2022/02/05 07:12:18;;;;;;;1.23;1.00;;;;;;;;;;10500145;28;20032;-75
2022/02/05 07:17:30;;;;;;;0.98;0.70;;;;;;;;;;10520776;28;20049;-76
2022/02/05 07:22:42;;;;;;;1.25;0.73;;;;;;;;;;10515329;28;20041;-76
2022/02/05 07:33:07;;;;;;;1.67;1.10;;;;;;;;;;10525322;28;20111;-77
2022/02/05 07:38:09;;;;;;;2.08;1.25;;;;;;;;;;10496777;28;20133;-76
2022/02/05 07:43:14;;;;;;;1.30;0.90;;;;;;;;;;10515819;28;20067;-76
2022/02/05 07:48:17;;;;;;;1.45;1.00;;;;;;;;;;10501522;28;20090;-76
2022/02/05 07:53:19;;;;;;;1.38;0.95;;;;;;;;;;10512971;28;20068;-76
2022/02/05 07:58:24;;;;;;;1.17;0.90;;;;;;;;;;10516679;28;20412;-75
2022/02/05 08:03:27;;;;;;;1.80;0.98;;;;;;;;;;10498878;28;20043;-76
2022/02/05 08:08:33;;;;;;;1.43;0.83;;;;;;;;;;10500177;28;20036;-77
2022/02/05 08:13:37;;;;;;;4.53;1.50;;;;;;;;;;10501302;28;20047;-75
2022/02/05 08:18:41;;;;;;;1.38;1.15;;;;;;;;;;10518476;28;20449;-75
2022/02/05 08:23:44;;;;;;;2.10;0.98;;;;;;;;;;10515628;28;20510;-76
2022/02/05 08:28:49;;;;;;;1.00;0.85;;;;;;;;;;10497369;28;20036;-76
2022/02/05 08:33:52;;;;;;;1.60;1.10;;;;;;;;;;10500992;28;20430;-76
2022/02/05 08:38:55;;;;;;;4.53;1.40;;;;;;;;;;10504884;28;20437;-75
2022/02/05 08:43:59;;;;;;;2.20;1.20;;;;;;;;;;10520174;28;20095;-76
2022/02/05 08:49:02;;;;;;;1.73;1.33;;;;;;;;;;10488809;28;20464;-77
2022/02/05 08:54:05;;;;;;;2.33;1.30;;;;;;;;;;10495514;28;20089;-76
2022/02/05 08:59:09;;;;;;;4.25;1.40;;;;;;;;;;10495771;28;20496;-76
2022/02/05 09:04:20;;;;;;;3.20;1.10;;;;;;;;;;10508081;28;20043;-76
2022/02/05 09:09:35;;;;;;;3.33;0.95;;;;;;;;;;10515938;28;20067;-75
2022/02/05 09:14:42;;;;;;;2.60;0.98;;;;;;;;;;10512538;28;20127;-77
2022/02/05 09:19:46;;;;;;;2.60;0.90;;;;;;;;;;10515653;28;20035;-76
2022/02/05 09:24:49;;;;;;;1.45;0.90;;;;;;;;;;10495954;28;20043;-76
2022/02/05 09:30:01;;;;;;;2.45;0.90;;;;;;;;;;10507446;28;20033;-75
2022/02/05 09:35:07;;;;;;;1.15;1.00;;;;;;;;;;10510557;28;20036;-77
2022/02/05 09:40:11;;;;;;;2.67;0.70;;;;;;;;;;10500819;28;20397;-76
2022/02/05 09:45:15;;;;;;;3.40;1.00;;;;;;;;;;10517012;28;20373;-75
2022/02/05 09:50:22;;;;;;;3.50;1.15;;;;;;;;;;10498616;28;20154;-75
2022/02/05 09:55:25;;;;;;;2.55;1.30;;;;;;;;;;10496433;28;20052;-75
2022/02/05 10:00:30;;;;;;;1.90;1.40;;;;;;;;;;10503968;28;20495;-76
2022/02/05 10:05:37;;;;;;;1.58;0.93;;;;;;;;;;10514576;28;20069;-75
2022/02/05 10:10:41;;;;;;;2.40;0.70;;;;;;;;;;10520911;28;20295;-76
2022/02/05 10:15:47;;;;;;;5.30;1.42;;;;;;;;;;10518150;28;20119;-76
2022/02/05 10:20:55;;;;;;;2.17;1.30;;;;;;;;;;10522154;28;20077;-76
2022/02/05 10:25:57;;;;;;;1.40;1.08;;;;;;;;;;10501450;28;20068;-77
2022/02/05 10:31:02;;;;;;;1.83;1.10;;;;;;;;;;10497247;22;20113;-67
2022/02/05 10:36:11;;;;;;;3.75;1.45;;;;;;;;;;10429360;28;20140;-70
2022/02/05 10:46:42;;;;;;;1.10;1.10;;;;;;;;;;10445240;28;20507;-70
2022/02/05 10:51:47;;;;;;;1.90;1.25;;;;;;;;;;10445068;28;20033;-69
2022/02/05 10:56:59;;;;;;;3.25;1.70;;;;;;;;;;10458668;28;20037;-70
2022/02/05 11:07:27;;;;;;;1.27;1.17;;;;;;;;;;10462411;28;20173;-70
2022/02/05 11:23:05;;;;;;;2.72;1.27;;;;;;;;;;10452488;28;20033;-71
2022/02/05 11:28:10;;;;;;;1.35;1.25;;;;;;;;;;10454354;28;20041;-70
2022/02/05 11:33:22;;;;;;;1.40;1.30;;;;;;;;;;10453589;28;20037;-71
2022/02/05 11:38:29;;;;;;;1.75;1.30;;;;;;;;;;10450261;28;20041;-69
2022/02/05 11:43:32;;;;;;;2.25;1.35;;;;;;;;;;10455032;28;20040;-70
2022/02/05 11:48:41;;;;;;;1.83;1.30;;;;;;;;;;10433300;28;20048;-70
2022/02/05 11:54:05;;;;;;;2.17;1.40;;;;;;;;;;10452138;28;20032;-70
2022/02/05 11:59:08;;;;;;;1.77;1.50;;;;;;;;;;10456405;28;20105;-70
2022/02/05 12:04:14;;;;;;;1.85;1.20;;;;;;;;;;10440997;28;20075;-70
2022/02/05 12:09:40;;;;;;;1.52;1.42;;;;;;;;;;10446623;28;20059;-70
2022/02/05 12:15:15;;;;;;;2.03;1.37;;;;;;;;;;10455980;28;20587;-71
2022/02/05 12:20:24;;;;;;;8.38;1.50;;;;;;;;;;10500641;28;20044;-72
2022/02/05 12:25:27;;;;;;;1.80;1.70;;;;;;;;;;10484758;28;20028;-71
2022/02/05 12:30:36;;;;;;;3.22;1.35;;;;;;;;;;10483934;28;20053;-71
2022/02/05 12:35:52;;;;;;;0.90;0.80;;;;;;;;;;10491824;28;20040;-71
2022/02/05 12:40:55;;;;;;;2.15;1.58;;;;;;;;;;10451645;28;20045;-70
2022/02/05 12:46:07;;;;;;;3.42;1.90;;;;;;;;;;10463163;28;20037;-73
2022/02/05 12:51:12;;;;;;;2.63;1.67;;;;;;;;;;10443994;28;20070;-72
2022/02/05 12:56:18;;;;;;;3.08;1.42;;;;;;;;;;10454926;28;20048;-71
2022/02/05 13:01:21;;;;;;;1.63;1.38;;;;;;;;;;10455255;28;20037;-72
2022/02/05 13:06:26;;;;;;;1.50;1.40;;;;;;;;;;10435896;28;20493;-72
2022/02/05 13:11:31;;;;;;;1.25;1.23;;;;;;;;;;10451894;28;20043;-71
2022/02/05 13:16:36;;;;;;;1.50;1.40;;;;;;;;;;10465096;28;20041;-70
2022/02/05 13:27:27;;;;;;;4.63;1.60;;;;;;;;;;10456447;28;20045;-71
2022/02/05 13:38:00;;;;;;;2.08;1.10;;;;;;;;;;10412110;28;20571;-71
2022/02/05 13:43:10;;;;;;;4.85;1.40;;;;;;;;;;10461996;28;20033;-71
2022/02/05 13:48:23;;;;;;;3.42;1.40;;;;;;;;;;10479141;28;20128;-70
2022/02/05 13:53:27;;;;;;;1.70;1.15;;;;;;;;;;10459544;28;20431;-71
2022/02/05 13:58:37;;;;;;;1.20;0.88;;;;;;;;;;10442717;28;21558;-69
2022/02/05 14:03:41;;;;;;;1.60;1.20;;;;;;;;;;10462222;28;20509;-72
2022/02/05 14:08:47;;;;;;;2.45;0.98;;;;;;;;;;10443019;28;20033;-71
2022/02/05 14:13:56;;;;;;;1.05;0.85;;;;;;;;;;10458668;28;20500;-71
2022/02/05 14:19:01;;;;;;;1.58;1.27;;;;;;;;;;10432023;28;20126;-70
2022/02/05 14:24:14;;;;;;;1.65;1.00;;;;;;;;;;10453765;28;20032;-70
2022/02/05 14:29:17;;;;;;;2.17;1.23;;;;;;;;;;10440232;28;20037;-71
2022/02/05 14:34:22;;;;;;;1.00;0.90;;;;;;;;;;10434470;28;20300;-71
2022/02/05 14:44:52;;;;;;;1.90;0.70;;;;;;;;;;10457172;28;20033;-71
2022/02/05 14:49:55;;;;;;;0.90;0.53;;;;;;;;;;10483293;28;20041;-72
2022/02/05 14:55:00;;;;;;;0.50;0.32;;;;;;;;;;10471536;28;20341;-70
2022/02/05 15:00:03;;;;;;;0.60;0.30;;;;;;;;;;10467193;28;20061;-71
2022/02/05 15:05:11;;;;;;;1.25;0.45;;;;;;;;;;10447515;28;20041;-73
2022/02/05 15:10:19;;;;;;;1.38;0.40;;;;;;;;;;10460077;28;20551;-71
2022/02/05 15:15:25;;;;;;;1.08;0.82;;;;;;;;;;10452219;28;20047;-70
2022/02/05 15:20:28;;;;;;;5.57;1.48;;;;;;;;;;10453892;28;20040;-70
2022/02/05 15:25:33;;;;;;;0.70;0.70;;;;;;;;;;10459051;28;20124;-72
2022/02/05 15:30:36;;;;;;;1.85;0.70;;;;;;;;;;10447184;28;20067;-69
2022/02/05 15:35:39;;;;;;;0.22;0.15;;;;;;;;;;10455217;28;20037;-70
2022/02/05 15:46:05;;;;;;;0.50;0.38;;;;;;;;;;10442328;28;20101;-72
2022/02/05 15:51:09;;;;;;;0.93;0.47;;;;;;;;;;10445634;28;20045;-71
2022/02/05 15:56:26;;;;;;;2.83;0.75;;;;;;;;;;10464805;28;20059;-72
2022/02/05 16:01:29;;;;;;;0.70;0.70;;;;;;;;;;10432623;28;20459;-71
2022/02/05 16:06:34;;;;;;;3.67;0.90;;;;;;;;;;10452984;28;20094;-71
2022/02/05 16:11:39;;;;;;;1.07;0.40;;;;;;;;;;10451910;28;20040;-71
2022/02/05 16:16:42;;;;;;;2.83;0.97;;;;;;;;;;10448531;28;20055;-72
2022/02/05 16:21:45;;;;;;;0.83;0.43;;;;;;;;;;10438539;28;20037;-72
2022/02/05 16:26:50;;;;;;;0.23;0.20;;;;;;;;;;10436067;28;20039;-71
2022/02/05 16:31:54;;;;;;;1.57;0.93;;;;;;;;;;10472453;22;20384;-76
2022/02/05 16:36:59;;;;;;;6.93;1.35;;;;;;;;;;10463886;28;20040;-75
2022/02/05 16:42:06;;;;;;;1.27;0.97;;;;;;;;;;10466871;28;20104;-76
2022/02/05 16:47:09;;;;;;;2.10;1.00;;;;;;;;;;10454936;28;20071;-78
2022/02/05 16:52:12;;;;;;;2.73;1.20;;;;;;;;;;10474378;28;20041;-77
2022/02/05 16:57:17;;;;;;;1.45;1.00;;;;;;;;;;10456247;28;20098;-75
2022/02/05 17:02:21;;;;;;;3.10;1.17;;;;;;;;;;10448171;28;20048;-76
2022/02/05 17:07:24;;;;;;;5.53;2.05;;;;;;;;;;10469898;28;20056;-77
2022/02/05 17:12:28;;;;;;;3.43;1.03;;;;;;;;;;10456403;28;20075;-77
2022/02/05 17:17:33;;;;;;;;;;;;;;;;;;10467819;28;20041;-75
2022/02/05 17:22:37;;;;;;;2.87;1.27;;;;;;;;;;10452092;28;19929;-77
2022/02/05 17:27:41;;;;;;;3.90;1.53;;;;;;;;;;10452954;28;20071;-76
2022/02/05 17:32:45;;;;;;;4.27;1.47;;;;;;;;;;10471835;28;20107;-77
2022/02/05 17:37:49;;;;;;;2.47;1.40;;;;;;;;;;10452541;28;20057;-77
2022/02/05 17:42:53;;;;;;;3.73;2.03;;;;;;;;;;10476750;28;20393;-78
2022/02/05 17:47:56;;;;;;;3.23;1.40;;;;;;;;;;10466786;28;20045;-77
2022/02/05 17:53:00;;;;;;;5.40;2.20;;;;;;;;;;10498861;28;20055;-76
2022/02/05 17:58:04;;;;;;;6.93;1.10;;;;;;;;;;10469971;28;20106;-77
2022/02/05 18:03:07;;;;;;;3.33;1.42;;;;;;;;;;10467834;28;20102;-76
2022/02/05 18:08:25;;;;;;;7.27;2.23;;;;;;;;;;10465125;28;20052;-76
2022/02/05 18:13:54;;;;;;;9.37;2.20;;;;;;;;;;10460247;28;20053;-77
2022/02/05 18:18:57;;;;;;;3.70;2.03;;;;;;;;;;10464189;28;20040;-76
2022/02/05 18:24:03;;;;;;;7.80;1.73;;;;;;;;;;10456480;28;20469;-77
2022/02/05 18:29:08;;;;;;;6.47;2.22;;;;;;;;;;10458442;28;20048;-77
2022/02/05 18:34:11;;;;;;;;;;;;;;;;;;10458515;28;20036;-77
2022/02/05 18:39:20;;;;;;;1.63;0.87;;;;;;;;;;10476707;28;20426;-76
2022/02/05 18:44:25;;;;;;;3.70;1.53;;;;;;;;;;10471682;28;20158;-76
2022/02/05 18:49:29;;;;;;;3.30;1.37;;;;;;;;;;10459307;28;20400;-76
2022/02/05 18:54:32;;;;;;;3.90;1.23;;;;;;;;;;10470193;28;20090;-76
2022/02/05 18:59:41;;;;;;;1.70;1.20;;;;;;;;;;10446097;28;20044;-75
2022/02/05 19:15:52;;;;;;;1.13;0.63;;;;;;;;;;10471030;28;20137;-74
2022/02/05 19:20:55;;;;;;;0.93;0.73;;;;;;;;;;10458331;28;20140;-75
2022/02/05 19:25:59;;;;;;;3.03;1.10;;;;;;;;;;10452225;28;20097;-74
2022/02/05 19:31:04;;;;;;;4.37;2.00;;;;;;;;;;10469187;28;20059;-77
2022/02/05 19:36:07;;;;;;;;;;;;;;;;;;10454658;28;20504;-76
2022/02/05 19:41:09;;;;;;;3.10;0.77;;;;;;;;;;10475838;28;20023;-76
2022/02/05 19:46:15;;;;;;;1.43;0.73;;;;;;;;;;10468274;28;20450;-75
2022/02/05 19:51:21;;;;;;;2.13;1.37;;;;;;;;;;10447395;28;20381;-75
2022/02/05 19:56:24;;;;;;;2.37;1.33;;;;;;;;;;10462971;28;20068;-75
2022/02/05 20:01:29;;;;;;;1.10;0.67;;;;;;;;;;10462964;28;20535;-75
2022/02/05 20:06:39;;;;;;;2.40;1.00;;;;;;;;;;10461040;28;20481;-75
2022/02/05 20:11:43;;;;;;;3.17;0.87;;;;;;;;;;10466091;28;20465;-75
2022/02/05 20:16:47;;;;;;;0.83;0.60;;;;;;;;;;10462781;28;20037;-75
2022/02/05 20:21:50;;;;;;;;;;;;;;;;;;10459856;28;20057;-75
2022/02/05 20:26:52;;;;;;;1.93;1.37;;;;;;;;;;10465930;28;19920;-73
2022/02/05 20:31:57;;;;;;;2.63;1.40;;;;;;;;;;10458149;28;20827;-75
2022/02/05 20:37:00;;;;;;;4.13;1.50;;;;;;;;;;10446000;28;20032;-75
2022/02/05 20:42:04;;;;;;;1.00;0.80;;;;;;;;;;10459170;28;20547;-74
2022/02/05 20:47:13;;;;;;;1.80;1.13;;;;;;;;;;10454018;28;20068;-75
2022/02/05 20:52:15;;;;;;;5.43;2.77;;;;;;;;;;10450490;28;20037;-75
2022/02/05 20:57:18;;;;;;;3.30;1.57;;;;;;;;;;10462967;28;20037;-74
2022/02/05 21:02:23;;;;;;;1.93;1.33;;;;;;;;;;10460159;28;20485;-76
2022/02/05 21:07:26;;;;;;;4.00;1.38;;;;;;;;;;10446279;28;20032;-77
2022/02/05 21:12:29;;;;;;;1.90;1.10;;;;;;;;;;10460966;28;20155;-74
2022/02/05 21:17:34;;;;;;;3.20;0.80;;;;;;;;;;10460752;28;20058;-76
2022/02/05 21:22:37;;;;;;;6.43;2.30;;;;;;;;;;10445953;28;20052;-75
2022/02/05 21:27:49;;;;;;;2.83;1.23;;;;;;;;;;10464460;28;20037;-77
2022/02/05 21:33:01;;;;;;;1.33;0.70;;;;;;;;;;10455418;28;20044;-76
2022/02/05 21:38:05;;;;;;;3.13;1.87;;;;;;;;;;10464328;28;20529;-75
2022/02/05 21:43:09;;;;;;;3.17;1.30;;;;;;;;;;10457632;28;20120;-75
2022/02/05 21:48:13;;;;;;;3.87;1.70;;;;;;;;;;10480900;28;20041;-73
2022/02/05 21:53:28;;;;;;;1.03;0.90;;;;;;;;;;10481859;28;20084;-75
2022/02/05 21:58:35;;;;;;;1.73;1.03;;;;;;;;;;10465650;28;20713;-74
2022/02/05 22:03:40;;;;;;;3.13;1.40;;;;;;;;;;10482305;28;20298;-74
2022/02/05 22:08:43;;;;;;;1.80;1.17;;;;;;;;;;10480052;28;20063;-74
2022/02/05 22:13:47;;;;;;;6.22;2.38;;;;;;;;;;10470233;28;20040;-76
2022/02/05 22:18:52;;;;;;;1.10;0.60;;;;;;;;;;10466843;28;20064;-75
2022/02/05 22:23:55;;;;;;;1.10;0.82;;;;;;;;;;10490895;28;20033;-76
2022/02/05 22:28:59;;;;;;;1.85;1.20;;;;;;;;;;10499649;28;20487;-75
2022/02/05 22:34:03;;;;;;;2.10;0.70;;;;;;;;;;10478111;22;20065;-79
2022/02/05 22:39:07;;;;;;;2.30;1.03;;;;;;;;;;10411014;28;20465;-78
2022/02/05 22:44:10;;;;;;;2.83;1.70;;;;;;;;;;10450152;28;20103;-77
2022/02/05 22:49:15;;;;;;;1.55;1.00;;;;;;;;;;10440001;28;20137;-79
2022/02/05 22:54:18;;;;;;;3.03;0.90;;;;;;;;;;10460114;28;20041;-78
2022/02/05 22:59:21;;;;;;;3.17;1.10;;;;;;;;;;10444871;28;20037;-80
2022/02/05 23:04:26;;;;;;;4.57;1.60;;;;;;;;;;10456153;28;20132;-80
2022/02/05 23:09:43;;;;;;;4.07;1.43;;;;;;;;;;10464663;28;20292;-81
2022/02/05 23:15:03;;;;;;;3.33;1.47;;;;;;;;;;10440318;28;20107;-80
2022/02/05 23:42:09;;;;;;;0.30;0.30;;;;;;;;;;10417503;28;20050;-78
2022/02/05 23:47:14;;;;;;;3.67;1.20;;;;;;;;;;10438018;28;20036;-78
2022/02/05 23:52:18;;;;;;;1.57;0.83;;;;;;;;;;10422782;28;20048;-78
2022/02/05 23:57:27;;;;;;;0.87;0.40;;;;;;;;;;10440491;28;20128;-79
